createdAt,value
2023-03-05T00:01:30.733Z,6.57
2023-03-05T00:03:58.820Z,6.51
2023-03-05T00:06:29.162Z,6.54
2023-03-05T00:08:58.516Z,6.44
2023-03-05T00:11:33.448Z,6.38
2023-03-05T00:14:03.533Z,6.42
2023-03-05T00:16:31.901Z,6.50
2023-03-05T00:19:04.614Z,6.59
2023-03-05T00:21:35.347Z,6.60
2023-03-05T00:24:05.194Z,6.56
2023-03-05T00:26:39.086Z,6.58
2023-03-05T00:29:08.400Z,6.58
2023-03-05T00:31:37.819Z,6.61
2023-03-05T00:34:08.681Z,6.58
2023-03-05T00:36:40.107Z,6.47
2023-03-05T00:39:08.538Z,6.35
2023-03-05T00:41:37.921Z,6.36
2023-03-05T00:44:06.257Z,6.40
2023-03-05T00:46:34.586Z,6.41
2023-03-05T00:49:02.427Z,6.46
2023-03-05T00:51:30.605Z,6.50
2023-03-05T00:53:58.562Z,6.51
2023-03-05T00:56:26.826Z,6.52
2023-03-05T00:58:56.215Z,6.52
2023-03-05T01:01:24.334Z,6.47
2023-03-05T01:03:52.327Z,6.40
2023-03-05T01:06:20.612Z,6.40
2023-03-05T01:08:48.459Z,6.42
2023-03-05T01:11:16.268Z,6.38
2023-03-05T01:13:44.239Z,6.38
2023-03-05T01:16:13.592Z,6.44
2023-03-05T01:18:43.164Z,6.47
2023-03-05T01:21:11.559Z,6.43
2023-03-05T01:23:39.468Z,6.49
2023-03-05T01:26:08.644Z,6.49
2023-03-05T01:28:38.255Z,6.52
2023-03-05T01:31:09.002Z,6.52
2023-03-05T01:33:38.496Z,6.54
2023-03-05T01:36:13.949Z,6.52
2023-03-05T01:38:41.977Z,6.51
2023-03-05T01:41:09.972Z,6.47
2023-03-05T01:43:38.261Z,6.40
2023-03-05T01:46:36.560Z,6.37
2023-03-05T01:49:13.382Z,6.21
2023-03-05T01:51:46.918Z,6.07
2023-03-05T01:54:17.879Z,6.03
2023-03-05T01:56:47.110Z,6.08
2023-03-05T01:59:15.637Z,6.08
2023-03-05T02:01:47.576Z,6.10
2023-03-05T02:04:19.900Z,6.10
2023-03-05T02:06:48.194Z,6.01
2023-03-05T02:09:16.077Z,6.04
2023-03-05T02:11:44.281Z,6.09
2023-03-05T02:14:12.202Z,6.06
2023-03-05T02:16:40.519Z,6.00
2023-03-05T02:19:10.640Z,6.03
2023-03-05T02:21:41.314Z,6.01
2023-03-05T02:24:12.782Z,6.01
2023-03-05T02:26:41.067Z,6.01
2023-03-05T02:29:11.547Z,6.04
2023-03-05T02:31:39.353Z,6.03
2023-03-05T02:34:07.699Z,6.06
2023-03-05T02:36:35.574Z,6.07
2023-03-05T02:39:05.625Z,6.07
2023-03-05T02:41:33.656Z,6.03
2023-03-05T02:44:01.667Z,5.99
2023-03-05T02:46:29.742Z,5.97
2023-03-05T02:48:57.663Z,5.97
2023-03-05T02:51:25.541Z,5.99
2023-03-05T02:53:53.423Z,5.95
2023-03-05T02:56:22.678Z,5.94
2023-03-05T02:58:50.645Z,5.93
2023-03-05T03:01:18.583Z,5.94
2023-03-05T03:03:46.908Z,5.95
2023-03-05T03:06:14.786Z,5.88
2023-03-05T03:08:42.726Z,5.87
2023-03-05T03:11:13.480Z,5.89
2023-03-05T03:13:42.834Z,5.91
2023-03-05T03:16:13.598Z,5.91
2023-03-05T03:18:41.582Z,5.85
2023-03-05T03:21:09.488Z,5.75
2023-03-05T03:23:37.361Z,5.72
2023-03-05T03:26:05.332Z,5.69
2023-03-05T03:28:33.175Z,5.59
2023-03-05T03:31:02.524Z,5.47
2023-03-05T03:33:30.362Z,5.50
2023-03-05T03:35:58.263Z,5.51
2023-03-05T03:38:26.217Z,5.54
2023-03-05T03:40:53.968Z,5.65
2023-03-05T03:43:21.878Z,5.57
2023-03-05T03:45:49.723Z,5.54
2023-03-05T03:48:19.136Z,5.53
2023-03-05T03:50:46.927Z,5.49
2023-03-05T03:53:14.958Z,5.50
2023-03-05T03:55:43.984Z,5.54
2023-03-05T03:58:11.868Z,5.55
2023-03-05T04:00:40.583Z,5.58
2023-03-05T04:03:08.615Z,5.53
2023-03-05T04:05:37.921Z,5.57
2023-03-05T04:08:08.487Z,5.57
2023-03-05T04:10:36.341Z,5.63
2023-03-05T04:13:04.352Z,5.64
2023-03-05T04:15:32.204Z,5.66
2023-03-05T04:18:00.219Z,5.67
2023-03-05T04:20:28.142Z,5.67
2023-03-05T04:22:57.307Z,5.65
2023-03-05T04:25:25.225Z,5.66
2023-03-05T04:27:53.295Z,5.67
2023-03-05T04:30:21.519Z,5.66
2023-03-05T04:32:49.346Z,5.63
2023-03-05T04:35:17.403Z,5.63
2023-03-05T04:40:38.569Z,5.57
2023-03-05T04:43:07.128Z,5.49
2023-03-05T04:45:35.207Z,5.53
2023-03-05T04:48:03.477Z,5.54
2023-03-05T04:50:31.275Z,5.60
2023-03-05T04:53:00.477Z,5.65
2023-03-05T04:55:28.630Z,5.68
2023-03-05T04:57:58.046Z,5.69
2023-03-05T05:00:26.006Z,5.69
2023-03-05T05:02:54.621Z,5.68
2023-03-05T05:05:24.695Z,5.64
2023-03-05T05:07:55.393Z,5.57
2023-03-05T05:10:23.863Z,5.54
2023-03-05T05:12:51.704Z,5.51
2023-03-05T05:15:21.378Z,5.51
2023-03-05T05:17:49.722Z,5.50
2023-03-05T05:20:18.482Z,5.51
2023-03-05T05:22:46.397Z,5.54
2023-03-05T05:25:14.252Z,5.52
2023-03-05T05:27:42.328Z,5.54
2023-03-05T05:30:11.706Z,5.52
2023-03-05T05:32:41.127Z,5.53
2023-03-05T05:35:09.665Z,5.53
2023-03-05T05:37:37.522Z,5.56
2023-03-05T05:40:06.672Z,5.57
2023-03-05T05:42:34.538Z,5.55
2023-03-05T05:45:03.373Z,5.55
2023-03-05T05:47:31.375Z,5.59
2023-03-05T05:50:00.574Z,5.57
2023-03-05T05:52:28.680Z,5.53
2023-03-05T05:54:56.400Z,5.50
2023-03-05T05:57:24.958Z,5.48
2023-03-05T05:59:53.167Z,5.46
2023-03-05T06:02:21.003Z,5.44
2023-03-05T06:04:48.800Z,5.41
2023-03-05T06:07:18.099Z,5.37
2023-03-05T06:09:46.071Z,5.38
2023-03-05T06:12:13.909Z,5.40
2023-03-05T06:14:41.712Z,5.38
2023-03-05T06:17:11.294Z,5.41
2023-03-05T06:19:40.550Z,5.44
2023-03-05T06:22:08.846Z,5.42
2023-03-05T06:24:38.951Z,5.37
2023-03-05T06:27:07.258Z,5.40
2023-03-05T06:29:35.038Z,5.41
2023-03-05T06:32:02.838Z,5.45
2023-03-05T06:34:30.656Z,5.48
2023-03-05T06:36:58.519Z,5.47
2023-03-05T06:39:26.465Z,5.49
2023-03-05T06:41:55.665Z,5.46
2023-03-05T06:44:23.409Z,5.50
2023-03-05T06:46:51.255Z,5.53
2023-03-05T06:49:20.144Z,5.51
2023-03-05T06:51:48.235Z,5.47
2023-03-05T06:54:18.122Z,5.48
2023-03-05T06:56:47.364Z,5.47
2023-03-05T06:59:18.054Z,5.52
2023-03-05T07:01:46.486Z,5.50
2023-03-05T07:04:15.487Z,5.44
2023-03-05T07:06:44.308Z,5.55
2023-03-05T07:09:15.456Z,5.62
2023-03-05T07:11:43.615Z,5.67
2023-03-05T07:14:11.421Z,5.70
2023-03-05T07:16:40.710Z,5.70
2023-03-05T07:19:10.933Z,5.70
2023-03-05T07:21:40.012Z,5.70
2023-03-05T07:24:09.377Z,5.73
2023-03-05T07:26:41.410Z,5.70
2023-03-05T07:29:09.443Z,5.71
2023-03-05T07:31:37.994Z,5.80
2023-03-05T07:34:07.264Z,5.88
2023-03-05T07:36:35.446Z,5.97
2023-03-05T07:39:06.583Z,6.01
2023-03-05T07:41:34.456Z,6.00
2023-03-05T07:44:02.308Z,5.98
2023-03-05T07:46:33.577Z,6.01
2023-03-05T07:49:01.447Z,6.06
2023-03-05T07:51:31.664Z,6.10
2023-03-05T07:54:00.060Z,6.11
2023-03-05T07:56:31.824Z,6.18
2023-03-05T07:58:59.898Z,6.16
2023-03-05T08:01:28.516Z,6.18
2023-03-05T08:03:56.444Z,6.27
2023-03-05T08:06:24.298Z,6.27
2023-03-05T08:08:56.423Z,6.32
2023-03-05T08:11:24.311Z,6.32
2023-03-05T08:13:52.339Z,6.29
2023-03-05T08:16:21.951Z,6.31
2023-03-05T08:18:50.019Z,6.29
2023-03-05T08:21:19.639Z,6.28
2023-03-05T08:23:47.746Z,6.31
2023-03-05T08:26:19.719Z,6.35
2023-03-05T08:28:48.027Z,6.37
2023-03-05T08:31:18.643Z,6.35
2023-03-05T08:33:46.511Z,6.29
2023-03-05T08:36:14.354Z,6.21
2023-03-05T08:38:44.492Z,6.16
2023-03-05T08:41:14.734Z,6.09
2023-03-05T08:43:44.252Z,6.12
2023-03-05T08:46:13.718Z,6.01
2023-03-05T08:48:41.931Z,5.96
2023-03-05T08:51:12.770Z,6.03
2023-03-05T08:53:40.660Z,6.12
2023-03-05T08:56:09.486Z,6.20
2023-03-05T08:58:38.175Z,6.34
2023-03-05T09:01:07.998Z,6.35
2023-03-05T09:03:36.128Z,6.43
2023-03-05T09:06:08.069Z,6.50
2023-03-05T09:08:36.769Z,6.52
2023-03-05T09:11:05.463Z,6.52
2023-03-05T09:13:34.097Z,6.58
2023-03-05T09:16:04.392Z,6.69
2023-03-05T09:18:36.589Z,6.83
2023-03-05T09:21:06.508Z,6.93
2023-03-05T09:23:35.216Z,7.00
2023-03-05T09:26:03.347Z,7.06
2023-03-05T09:28:31.235Z,7.18
2023-03-05T09:30:59.047Z,7.26
2023-03-05T09:33:28.211Z,7.32
2023-03-05T09:35:57.676Z,7.27
2023-03-05T09:38:25.988Z,7.25
2023-03-05T09:41:02.472Z,7.28
2023-03-05T09:43:38.637Z,7.38
2023-03-05T09:46:17.358Z,7.59
2023-03-05T09:48:52.935Z,7.85
2023-03-05T09:51:29.001Z,7.86
2023-03-05T09:54:03.196Z,7.60
2023-03-05T09:56:33.305Z,7.48
2023-03-05T09:59:19.868Z,7.43
2023-03-05T10:01:50.058Z,7.41
2023-03-05T10:04:22.566Z,7.56
2023-03-05T10:06:53.793Z,7.63
2023-03-05T10:09:32.998Z,7.62
2023-03-05T10:12:04.465Z,7.79
2023-03-05T10:14:35.324Z,8.00
2023-03-05T10:17:25.391Z,7.94
2023-03-05T10:20:25.195Z,7.98
2023-03-05T10:23:33.023Z,7.91
2023-03-05T10:26:07.920Z,7.76
2023-03-05T10:28:43.973Z,7.52
2023-03-05T10:31:28.768Z,7.42
2023-03-05T10:34:21.270Z,7.32
2023-03-05T10:37:01.005Z,7.23
2023-03-05T10:39:51.534Z,7.32
2023-03-05T10:42:31.006Z,7.21
2023-03-05T10:45:00.101Z,7.12
2023-03-05T10:47:31.262Z,6.92
2023-03-05T10:50:00.385Z,6.75
2023-03-05T10:52:36.301Z,6.87
2023-03-05T10:55:15.722Z,6.92
2023-03-05T10:57:44.027Z,6.86
2023-03-05T11:00:19.695Z,7.03
2023-03-05T11:02:56.791Z,7.27
2023-03-05T11:05:48.798Z,7.51
2023-03-05T11:08:31.714Z,7.64
2023-03-05T11:11:17.157Z,7.73
2023-03-05T11:13:58.191Z,7.87
2023-03-05T11:16:28.731Z,8.01
2023-03-05T11:19:19.781Z,8.14
2023-03-05T11:22:05.561Z,8.20
2023-03-05T11:24:33.887Z,8.37
2023-03-05T11:27:03.295Z,8.37
2023-03-05T11:29:34.730Z,8.45
2023-03-05T11:32:18.633Z,8.53
2023-03-05T11:34:49.395Z,8.68
2023-03-05T11:37:24.380Z,8.61
2023-03-05T11:40:16.163Z,8.67
2023-03-05T11:42:45.738Z,8.72
2023-03-05T11:45:18.171Z,8.81
2023-03-05T11:47:48.876Z,8.88
2023-03-05T11:50:26.225Z,8.96
2023-03-05T11:53:02.063Z,8.98
2023-03-05T11:55:33.949Z,9.02
2023-03-05T11:58:21.626Z,8.99
2023-03-05T12:00:52.759Z,8.86
2023-03-05T12:03:40.245Z,8.71
2023-03-05T12:06:15.948Z,8.71
2023-03-05T12:08:48.259Z,8.87
2023-03-05T12:11:20.532Z,8.83
2023-03-05T12:13:53.805Z,8.73
2023-03-05T12:16:32.424Z,8.83
2023-03-05T12:19:16.839Z,8.94
2023-03-05T12:21:51.128Z,9.06
2023-03-05T12:24:38.396Z,9.09
2023-03-05T12:27:18.337Z,8.99
2023-03-05T12:29:50.739Z,9.11
2023-03-05T12:32:58.393Z,9.21
2023-03-05T12:35:30.617Z,9.11
2023-03-05T12:38:17.163Z,9.14
2023-03-05T12:40:52.163Z,9.14
2023-03-05T12:43:32.006Z,9.36
2023-03-05T12:46:29.066Z,9.49
2023-03-05T12:48:57.016Z,9.56
2023-03-05T12:51:37.780Z,9.46
2023-03-05T12:54:28.049Z,9.42
2023-03-05T12:56:58.209Z,9.49
2023-03-05T12:59:33.516Z,9.53
2023-03-05T13:02:10.889Z,9.47
2023-03-05T13:04:46.866Z,9.24
2023-03-05T13:07:18.046Z,9.23
2023-03-05T13:09:53.750Z,9.33
2023-03-05T13:12:22.093Z,9.39
2023-03-05T13:14:59.058Z,9.42
2023-03-05T13:17:38.240Z,9.43
2023-03-05T13:20:28.868Z,9.30
2023-03-05T13:23:14.358Z,9.27
2023-03-05T13:25:42.260Z,9.15
2023-03-05T13:28:14.116Z,9.06
2023-03-05T13:30:47.232Z,9.17
2023-03-05T13:33:20.487Z,9.09
2023-03-05T13:35:48.664Z,9.04
2023-03-05T13:38:24.539Z,9.06
2023-03-05T13:41:08.410Z,9.21
2023-03-05T13:43:44.018Z,9.35
2023-03-05T13:46:12.126Z,9.43
2023-03-05T13:48:41.598Z,9.48
2023-03-05T13:51:09.693Z,9.48
2023-03-05T13:53:37.689Z,9.43
2023-03-05T13:56:07.847Z,9.34
2023-03-05T13:58:47.343Z,9.30
2023-03-05T14:01:24.140Z,9.21
2023-03-05T14:03:56.222Z,9.14
2023-03-05T14:06:27.847Z,9.13
2023-03-05T14:09:04.026Z,9.24
2023-03-05T14:11:31.918Z,9.38
2023-03-05T14:14:06.820Z,9.49
2023-03-05T14:16:35.409Z,9.44
2023-03-05T14:19:07.257Z,9.40
2023-03-05T14:21:47.514Z,9.37
2023-03-05T14:24:22.212Z,9.37
2023-03-05T14:26:53.033Z,9.36
2023-03-05T14:29:24.644Z,9.32
2023-03-05T14:31:55.481Z,9.40
2023-03-05T14:34:28.995Z,9.44
2023-03-05T14:37:00.305Z,9.56
2023-03-05T14:39:38.028Z,9.66
2023-03-05T14:42:29.261Z,9.67
2023-03-05T14:44:59.224Z,9.68
2023-03-05T14:47:28.257Z,9.62
2023-03-05T14:49:57.956Z,9.65
2023-03-05T14:52:28.277Z,9.61
2023-03-05T14:54:56.790Z,9.56
2023-03-05T14:57:28.230Z,9.50
2023-03-05T14:59:56.676Z,9.49
2023-03-05T15:02:26.783Z,9.37
2023-03-05T15:04:54.905Z,9.43
2023-03-05T15:07:28.135Z,9.50
2023-03-05T15:09:56.141Z,9.52
2023-03-05T15:12:24.648Z,9.48
2023-03-05T15:14:53.402Z,9.53
2023-03-05T15:17:23.510Z,9.43
2023-03-05T15:19:51.732Z,9.37
2023-03-05T15:22:19.513Z,9.32
2023-03-05T15:24:48.800Z,9.29
2023-03-05T15:27:16.618Z,9.20
2023-03-05T15:29:45.370Z,9.18
2023-03-05T15:32:14.771Z,9.15
2023-03-05T15:34:45.937Z,9.12
2023-03-05T15:37:16.130Z,9.14
2023-03-05T15:39:44.344Z,9.06
2023-03-05T15:42:17.632Z,9.01
2023-03-05T15:44:45.909Z,9.04
2023-03-05T15:47:14.200Z,9.02
2023-03-05T15:49:42.485Z,8.92
2023-03-05T15:52:10.659Z,8.93
2023-03-05T15:54:38.931Z,8.97
2023-03-05T15:57:10.672Z,9.03
2023-03-05T15:59:40.687Z,8.93
2023-03-05T16:02:09.287Z,8.87
2023-03-05T16:04:39.599Z,8.89
2023-03-05T16:07:22.885Z,8.90
2023-03-05T16:09:53.110Z,8.81
2023-03-05T16:12:28.104Z,8.80
2023-03-05T16:14:58.088Z,8.76
2023-03-05T16:17:31.263Z,8.70
2023-03-05T16:20:01.544Z,8.64
2023-03-05T16:22:31.659Z,8.61
2023-03-05T16:25:01.452Z,8.62
2023-03-05T16:27:31.949Z,8.63
2023-03-05T16:30:01.526Z,8.48
2023-03-05T16:32:29.820Z,8.51
2023-03-05T16:35:01.163Z,8.52
2023-03-05T16:37:36.838Z,8.49
2023-03-05T16:40:05.723Z,8.55
2023-03-05T16:42:33.886Z,8.58
2023-03-05T16:45:05.818Z,8.60
2023-03-05T16:47:35.592Z,8.56
2023-03-05T16:50:05.220Z,8.60
2023-03-05T16:52:33.301Z,8.52
2023-03-05T16:55:01.535Z,8.48
2023-03-05T16:57:29.744Z,8.48
2023-03-05T16:59:58.633Z,8.38
2023-03-05T17:02:27.932Z,8.32
2023-03-05T17:04:58.003Z,8.23
2023-03-05T17:07:26.673Z,8.25
2023-03-05T17:09:55.046Z,8.14
2023-03-05T17:12:23.991Z,8.18
2023-03-05T17:14:56.504Z,8.16
2023-03-05T17:17:24.662Z,8.15
2023-03-05T17:19:54.531Z,8.08
2023-03-05T17:22:25.146Z,8.07
2023-03-05T17:24:54.063Z,8.01
2023-03-05T17:27:23.139Z,7.97
2023-03-05T17:29:51.305Z,8.01
2023-03-05T17:32:21.197Z,8.07
2023-03-05T17:34:59.823Z,8.10
2023-03-05T17:37:55.981Z,8.00
2023-03-05T17:40:23.357Z,8.01
2023-03-05T17:42:59.365Z,8.02
2023-03-05T17:45:28.505Z,8.00
2023-03-05T17:47:58.608Z,7.96
2023-03-05T17:50:27.778Z,8.00
2023-03-05T17:52:59.834Z,7.96
2023-03-05T17:55:28.598Z,7.97
2023-03-05T17:57:56.559Z,8.01
2023-03-05T18:00:27.788Z,7.99
2023-03-05T18:02:56.429Z,7.92
2023-03-05T18:05:25.513Z,7.94
2023-03-05T18:07:54.997Z,7.95
2023-03-05T18:10:26.037Z,7.98
2023-03-05T18:12:54.044Z,7.98
2023-03-05T18:15:24.862Z,7.97
2023-03-05T18:17:53.837Z,7.89
2023-03-05T18:20:28.879Z,7.84
2023-03-05T18:22:57.228Z,7.84
2023-03-05T18:25:31.330Z,7.82
2023-03-05T18:28:00.129Z,7.83
2023-03-05T18:30:28.411Z,7.82
2023-03-05T18:32:56.928Z,7.76
2023-03-05T18:35:25.109Z,7.73
2023-03-05T18:37:53.756Z,7.70
2023-03-05T18:40:23.885Z,7.68
2023-03-05T18:42:54.046Z,7.65
2023-03-05T18:45:23.977Z,7.62
2023-03-05T18:47:54.249Z,7.60
2023-03-05T18:50:27.794Z,7.58
2023-03-05T18:52:55.921Z,7.60
2023-03-05T18:55:26.414Z,7.59
2023-03-05T18:57:57.044Z,7.58
2023-03-05T19:00:27.490Z,7.57
2023-03-05T19:02:59.016Z,7.55
2023-03-05T19:05:31.182Z,7.54
2023-03-05T19:08:01.984Z,7.52
2023-03-05T19:10:30.303Z,7.45
2023-03-05T19:13:15.879Z,7.39
2023-03-05T19:15:44.904Z,7.36
2023-03-05T19:18:13.463Z,7.37
2023-03-05T19:20:43.977Z,7.36
2023-03-05T19:23:12.278Z,7.36
2023-03-05T19:25:41.760Z,7.31
2023-03-05T19:28:11.688Z,7.26
2023-03-05T19:30:39.888Z,7.21
2023-03-05T19:33:10.273Z,7.20
2023-03-05T19:35:38.910Z,7.20
2023-03-05T19:38:08.647Z,7.17
2023-03-05T19:40:41.116Z,7.13
2023-03-05T19:43:10.464Z,7.15
2023-03-05T19:45:38.791Z,7.08
2023-03-05T19:48:26.324Z,7.07
2023-03-05T19:51:18.136Z,7.06
2023-03-05T19:54:18.866Z,7.05
2023-03-05T19:57:11.590Z,7.06
2023-03-05T19:59:58.625Z,7.06
2023-03-05T20:02:28.547Z,7.04
2023-03-05T20:05:36.978Z,7.04
2023-03-05T20:08:28.241Z,7.04
2023-03-05T20:11:26.886Z,7.01
2023-03-05T20:13:59.847Z,7.01
2023-03-05T20:20:39.918Z,6.99
2023-03-05T20:26:40.610Z,6.98
2023-03-05T20:29:28.846Z,7.00
2023-03-05T20:32:13.319Z,7.00
2023-03-05T20:34:44.440Z,6.96
2023-03-05T20:37:13.925Z,6.94
2023-03-05T20:39:42.240Z,6.89
2023-03-05T20:42:13.187Z,6.89
2023-03-05T20:44:42.594Z,6.93
2023-03-05T20:47:26.226Z,6.88
2023-03-05T20:49:55.805Z,6.83
2023-03-05T20:52:28.309Z,6.82
2023-03-05T20:54:56.045Z,6.78
2023-03-05T20:57:25.864Z,6.73
2023-03-05T20:59:54.228Z,6.67
2023-03-05T21:02:24.108Z,6.69
2023-03-05T21:04:53.398Z,6.65
2023-03-05T21:07:21.328Z,6.65
2023-03-05T21:09:50.715Z,6.67
2023-03-05T21:12:18.593Z,6.73
2023-03-05T21:14:47.544Z,6.77
2023-03-05T21:17:15.525Z,6.77
2023-03-05T21:19:43.449Z,6.60
2023-03-05T21:22:11.261Z,6.54
2023-03-05T21:24:55.623Z,6.50
2023-03-05T21:27:26.253Z,6.48
2023-03-05T21:29:54.149Z,6.48
2023-03-05T21:32:22.060Z,6.44
2023-03-05T21:34:52.807Z,6.44
2023-03-05T21:37:20.662Z,6.41
2023-03-05T21:39:48.440Z,6.39
2023-03-05T21:42:16.232Z,6.39
2023-03-05T21:44:45.369Z,6.41
2023-03-05T21:47:13.145Z,6.44
2023-03-05T21:49:40.929Z,6.49
2023-03-05T21:52:11.606Z,6.47
2023-03-05T21:54:39.912Z,6.50
2023-03-05T21:57:11.694Z,6.38
2023-03-05T21:59:40.767Z,6.39
2023-03-05T22:02:12.568Z,6.39
2023-03-05T22:04:40.376Z,6.37
2023-03-05T22:07:08.508Z,6.37
2023-03-05T22:09:36.493Z,6.38
2023-03-05T22:12:05.454Z,6.30
2023-03-05T22:14:33.164Z,6.27
2023-03-05T22:17:02.138Z,6.22
2023-03-05T22:19:31.647Z,6.21
2023-03-05T22:21:59.437Z,6.25
2023-03-05T22:24:27.331Z,6.24
2023-03-05T22:26:55.208Z,6.26
2023-03-05T22:29:23.122Z,6.20
2023-03-05T22:31:50.899Z,6.11
2023-03-05T22:34:18.641Z,6.03
2023-03-05T22:36:48.429Z,6.04
2023-03-05T22:39:16.257Z,6.12
2023-03-05T22:41:44.130Z,6.11
2023-03-05T22:44:11.916Z,6.11
2023-03-05T22:46:39.696Z,6.12
2023-03-05T22:49:07.533Z,6.10
2023-03-05T22:51:35.349Z,6.14
2023-03-05T22:54:04.645Z,6.18
2023-03-05T22:56:32.432Z,6.17
2023-03-05T22:59:00.299Z,6.17
2023-03-05T23:01:28.150Z,6.15
2023-03-05T23:04:08.005Z,6.12
2023-03-05T23:06:35.894Z,6.13
2023-03-05T23:09:05.299Z,6.11
2023-03-05T23:11:33.118Z,6.12
2023-03-05T23:14:00.955Z,6.13
2023-03-05T23:16:28.716Z,6.14
2023-03-05T23:18:56.590Z,6.13
2023-03-05T23:21:24.376Z,6.11
2023-03-05T23:23:53.090Z,6.14
2023-03-05T23:26:22.314Z,6.09
2023-03-05T23:28:50.118Z,6.02
2023-03-05T23:31:18.805Z,6.03
2023-03-05T23:33:46.774Z,6.03
2023-03-05T23:36:14.868Z,6.05
2023-03-05T23:38:42.769Z,6.03
2023-03-05T23:41:10.572Z,6.04
2023-03-05T23:43:39.889Z,5.97
2023-03-05T23:46:11.989Z,5.97
2023-03-05T23:48:39.876Z,5.97
2023-03-05T23:51:10.358Z,6.02
2023-03-05T23:53:38.679Z,6.04
2023-03-05T23:56:10.606Z,6.04
2023-03-05T23:58:40.410Z,5.94
